Weather observations for the past three days for
Moss Point - Trent Lott International Airport
Metric (Imperial)
Date Time (cdt) Wind (kph) Vis. (km) Weather Sky Cond. Temperature (ºC) Relative Humidity Wind Chill (°C) Heat Index (°C) Pressure Precipitation (cm)
Air Dwpt 6 hour altimeter (cm) sea level (mb) 1 hr 3 hr 6 hr
Max. Min.
02 17:53 Calm 16.09 Fair CLR 28.9 25 80% 34 76.15 1015.4
02 16:53 S 9 16.09 Thunderstorm in Vicinity CLR 30.6 23.9 67% 36 76.15 1015.4
02 15:53 SE 20 G 26 16.09 Overcast BKN043 OVC070 31.1 23.3 63% 36 76.17 1015.5 0.03
02 14:53 SW 9 16.09 Fair CLR 32.2 24.4 63% 39 76.17 1015.8
02 13:53 SW 7 16.09 Partly Cloudy FEW060 FEW080 SCT090 29.4 25.6 80% 36 76.25 1016.5 0.03
02 12:53 SW 6 16.09 Mostly Cloudy FEW049 BKN100 31.7 23.9 32.8 25.6 63% 37 76.3 1017.4
02 10:53 NE 6 16.09 Partly Cloudy SCT028 31.7 23.9 63% 37 76.38 1018.3
02 09:53 NE 9 16.09 Fair CLR 30.6 25 72% 37 76.38 1018.2
02 08:53 NE 9 16.09 Fair CLR 27.2 25.6 91% 31 76.38 1018.4
02 07:53 NE 7 16.09 Fair CLR 25.6 25 97% 27 76.35 1018.1
02 06:53 Calm 9.66 Fog/Mist CLR 23.3 23.3 24.4 22.8 100% 76.33 1017.6
02 05:53 Calm 9.66 Fog/Mist CLR 23.9 23.9 100% 22 76.3 1017.3
02 04:53 Calm 11.27 A Few Clouds FEW018 23.9 23.9 100% 22 76.28 1016.9
02 03:53 Calm 6.44 Fog/Mist CLR 23.3 23.3 100% 76.23 1016.4
02 02:53 Calm 4.02 Fog/Mist CLR 23.3 23.3 100% 76.23 1016.2
02 01:53 Calm 0.80 Fog CLR 23.9 23.9 100% 22 76.23 1016.3
02 00:53 Calm 2.01 Fog/Mist CLR 23.9 23.9 28.9 23.9 100% 22 76.23 1016.4
01 23:53 Calm 16.09 Fair CLR 24.4 23.9 97% 24 76.28 1016.9
01 22:53 Calm 16.09 Fair CLR 25 24.4 96% 25 76.28 1017.1
01 21:53 Calm 16.09 Fair CLR 25 24.4 96% 25 76.3 1017.3
01 20:53 Calm 16.09 Fair CLR 25.6 25 97% 27 76.25 1016.7
01 19:53 Calm 16.09 Fair CLR 26.7 25 90% 30 76.2 1015.9
01 18:53 Calm 16.09 Fair CLR 28.9 25 32.8 28.9 80% 34 76.17 1015.7
01 17:53 S 7 16.09 Fair CLR 30 25 75% 36 76.2 1016.1
01 16:53 S 9 16.09 Fair CLR 30 25 75% 36 76.17 1015.8
01 15:53 Vrbl 7 16.09 Fair CLR 31.7 24.4 65% 38 76.23 1016.4
01 14:53 S 11 16.09 Fair CLR 32.2 23.9 62% 38 76.25 1016.6
01 13:53 SE 9 16.09 Overcast BKN038 BKN046 OVC055 32.2 23.9 62% 38 76.28 1017.1
01 12:53 SE 7 16.09 Mostly Cloudy SCT036 SCT043 BKN080 31.7 23.9 32.8 23.9 63% 37 76.33 1017.7
01 11:53 E 9 16.09 Fair CLR 32.2 23.9 62% 38 76.35 1018.1
01 10:53 Calm 16.09 Mostly Cloudy SCT025 BKN032 31.1 24.4 68% 37 76.38 1018.3
01 09:53 NE 13 16.09 Fair CLR 30 26.1 80% 38 76.38 1018.2
01 08:53 E 9 16.09 Fair CLR 27.2 26.1 94% 32 76.38 1018.3
01 07:53 NE 6 16.09 Fair CLR 25.6 25 97% 27 76.35 1018.2
01 06:53 NE 6 16.09 Fair CLR 23.9 23.9 23.9 22.8 100% 22 76.33 1017.6
01 05:53 N 6 16.09 Fair CLR 23.9 23.9 100% 22 76.28 1016.9
01 03:53 Calm 2.41 Fog/Mist CLR 23.3 23.3 100% 76.2 1016.1
01 02:53 Calm 3.22 Fog/Mist CLR 23.3 23.3 100% 76.23 1016.4
01 01:53 Calm 11.27 Fair CLR 23.3 23.3 100% 76.25 1016.6
01 00:53 Calm 9.66 Fog/Mist CLR 23.9 23.3 27.8 23.3 96% 23 76.28 1016.9
31 23:53 Calm 2.82 Fog/Mist CLR 23.9 23.9 100% 22 76.28 1016.9
31 22:53 Calm 16.09 Fair CLR 24.4 23.9 97% 24 76.28 1017.0
31 21:53 Calm 16.09 Fair CLR 25.6 25 97% 27 76.28 1017.0
31 20:53 Calm 16.09 Fair CLR 25 25 100% 25 76.25 1016.7
31 19:53 Calm 16.09 Fair CLR 25.6 25 97% 27 76.2 1016.1
31 18:53 SE 7 16.09 Fair CLR 27.8 25 31.1 25.6 85% 32 76.17 1015.8
31 17:53 SE 6 16.09 Fair CLR 30 24.4 72% 36 76.23 1016.2
31 16:53 SE 11 16.09 Mostly Cloudy FEW042 SCT049 BKN090 28.9 25 80% 34 76.23 1016.3
31 15:53 SE 13 16.09 A Few Clouds FEW090 31.1 25 70% 38 76.25 1016.6
31 14:53 E 9 16.09 Fair CLR 30 25 75% 36 76.28 1017.0
31 13:53 NE 13 9.66 Thunderstorm Rain Fog/Mist SCT026 BKN037 OVC075 25.6 23.9 90% 27 76.33 1017.8
31 12:53 E 11 16.09 Partly Cloudy FEW031 FEW065 SCT110 28.3 24.4 30.6 24.4 79% 33 76.33 1017.8 0.05 0.05
31 11:53 NE 9 16.09 Light Rain SCT017 30 24.4 72% 36 76.35 1018.0
31 10:53 Vrbl 7 16.09 A Few Clouds FEW023 FEW035 30 24.4 72% 36 76.38 1018.3
31 09:53 E 9 16.09 Fair CLR 29.4 25 77% 35 76.35 1018.1
31 08:53 NE 13 16.09 Fair CLR 28.3 25 82% 33 76.35 1017.9
31 07:53 NE 13 16.09 Fair CLR 26.1 24.4 90% 28 76.33 1017.7
31 06:53 NE 7 16.09 Fair CLR 24.4 23.9 24.4 23.9 97% 24 76.28 1016.9
31 05:53 NE 6 16.09 Fair CLR 24.4 23.9 97% 24 76.23 1016.4
31 04:53 NE 7 16.09 Fair CLR 24.4 23.9 97% 24 76.2 1016.1
31 03:53 Calm 16.09 Fair CLR 23.9 23.3 96% 23 76.17 1015.8
31 02:53 NE 6 16.09 Fair CLR 24.4 23.9 97% 24 76.17 1015.7
31 01:53 NE 7 16.09 Fair CLR 24.4 23.9 97% 24 76.2 1016.0
31 00:53 NE 6 16.09 Fair CLR 24.4 23.9 28.9 23.9 97% 24 76.23 1016.5
30 23:53 NE 6 16.09 Fair CLR 24.4 23.9 97% 24 76.28 1017.0
30 22:53 Calm 16.09 Fair CLR 24.4 23.3 94% 24 76.28 1017.1
30 21:53 NE 6 16.09 Fair CLR 25 23.3 90% 26 76.28 1017.0
30 20:53 Calm 16.09 Fair CLR 25.6 23.3 87% 27 76.25 1016.6
30 19:53 E 7 16.09 Fair CLR 27.2 23.3 79% 30 76.2 1015.8
30 18:53 E 7 16.09 Fair CLR 28.9 23.9 31.7 28.9 74% 33 76.17 1015.7
Date Time (cdt) Wind (kph) Vis. (km) Weather Sky Cond. Air Dwpt Max. Min. Relative Humidity Wind Chill (°C) Heat Index (°C) altimeter (cm) sea level (mb) 1 hr 3 hr 6 hr
6 hour
Temperature (ºC) Pressure Precipitation (cm)